Time;durP1;ratioP1;P1;durP2;ratioP2;P2;SDS_P1;SDS_P2;PMS_P1;PMS_P2;Temp;Humidity;BMP_temperature;BMP_pressure;BME280_temperature;BME280_humidity;BME280_pressure;Samples;Min_cycle;Max_cycle;Signal;HPM_P1;HPM_P2
2021/07/14 00:00:09;;;;;;;17.63;15.25;;;22.60;92.00;;;;;;4898353;29;20482;-69
2021/07/14 00:02:35;;;;;;;17.35;14.80;;;22.50;92.30;;;;;;4895813;29;20039;-70
2021/07/14 00:05:00;;;;;;;18.00;14.57;;;22.50;92.60;;;;;;4897489;29;20028;-70
2021/07/14 00:07:26;;;;;;;17.92;15.15;;;22.60;92.00;;;;;;4880257;29;20037;-70
2021/07/14 00:09:52;;;;;;;15.80;13.70;;;22.70;91.90;;;;;;4897764;29;20107;-70
2021/07/14 00:12:18;;;;;;;18.98;15.68;;;22.70;91.60;;;;;;4898183;29;20028;-70
2021/07/14 00:15:01;;;;;;;17.20;14.85;;;22.60;91.80;;;;;;4880738;29;20646;-70
2021/07/14 00:22:54;;;;;;;18.80;15.07;;;22.60;91.80;;;;;;4898101;29;20063;-70
2021/07/14 00:25:20;;;;;;;18.02;14.82;;;22.60;91.80;;;;;;4880299;29;20056;-70
2021/07/14 00:27:49;;;;;;;18.17;14.85;;;22.60;91.80;;;;;;4880747;29;20044;-70
2021/07/14 00:30:22;;;;;;;18.35;15.30;;;22.50;91.90;;;;;;4897566;29;20024;-70
2021/07/14 00:32:47;;;;;;;20.30;16.40;;;22.50;91.90;;;;;;4897476;29;20040;-70
2021/07/14 00:35:14;;;;;;;18.70;15.95;;;22.50;91.90;;;;;;4880485;29;20025;-70
2021/07/14 00:37:39;;;;;;;19.70;15.90;;;22.50;91.90;;;;;;4879869;29;20033;-70
2021/07/14 00:40:10;;;;;;;19.83;16.40;;;22.50;92.00;;;;;;4880882;29;20025;-71
2021/07/14 00:42:36;;;;;;;22.58;17.23;;;22.50;92.00;;;;;;4878614;29;20032;-70
2021/07/14 00:45:03;;;;;;;21.48;18.52;;;22.50;92.10;;;;;;4897160;29;20039;-70
2021/07/14 00:47:32;;;;;;;20.80;16.85;;;22.10;93.10;;;;;;4880381;29;20080;-70
2021/07/14 00:49:58;;;;;;;21.15;17.40;;;22.30;93.00;;;;;;4897171;29;20064;-70
2021/07/14 00:52:24;;;;;;;21.38;16.95;;;22.10;93.70;;;;;;4897146;29;20044;-70
2021/07/14 00:54:50;;;;;;;19.25;16.05;;;22.20;93.10;;;;;;4896887;29;20032;-70
2021/07/14 00:57:18;;;;;;;19.90;16.48;;;22.40;92.40;;;;;;4879480;29;20399;-71
2021/07/14 00:59:44;;;;;;;21.48;17.15;;;22.50;92.00;;;;;;4896334;29;20024;-71
2021/07/14 01:02:11;;;;;;;20.88;16.75;;;22.60;91.90;;;;;;4876083;29;20035;-70
2021/07/14 01:04:41;;;;;;;21.20;17.20;;;22.60;92.00;;;;;;4861361;29;20492;-70
2021/07/14 01:07:25;;;;;;;21.07;16.90;;;22.70;91.70;;;;;;4891343;29;20045;-70
2021/07/14 01:10:02;;;;;;;24.23;17.65;;;22.60;91.70;;;;;;4895594;29;20490;-70
2021/07/14 01:12:31;;;;;;;20.80;17.27;;;22.50;91.80;;;;;;4879145;29;20028;-71
2021/07/14 01:15:13;;;;;;;21.15;17.08;;;22.50;91.80;;;;;;4896207;29;20025;-70
2021/07/14 01:18:00;;;;;;;20.85;16.58;;;22.60;91.80;;;;;;4880313;29;20039;-70
2021/07/14 01:20:41;;;;;;;20.70;16.65;;;22.50;92.00;;;;;;4896835;29;20020;-71
2021/07/14 01:23:25;;;;;;;;;;;22.50;91.90;;;;;;4880737;29;20171;-70
2021/07/14 01:26:12;;;;;;;19.90;16.10;;;22.50;91.80;;;;;;4896496;29;20326;-70
2021/07/14 01:28:41;;;;;;;21.00;17.40;;;22.60;91.80;;;;;;4880275;29;20029;-70
2021/07/14 01:31:09;;;;;;;20.02;17.10;;;22.50;91.90;;;;;;4896802;29;20466;-70
2021/07/14 01:33:39;;;;;;;18.33;16.05;;;22.50;91.70;;;;;;4879634;29;20064;-71
2021/07/14 01:36:11;;;;;;;22.10;16.50;;;22.50;91.90;;;;;;4879103;29;20021;-70
2021/07/14 01:38:40;;;;;;;19.35;16.27;;;22.50;92.00;;;;;;4879504;29;20039;-71
2021/07/14 01:41:07;;;;;;;19.45;16.63;;;22.40;92.10;;;;;;4879700;29;20083;-70
2021/07/14 01:43:38;;;;;;;19.45;16.70;;;22.40;92.10;;;;;;4896198;29;20088;-71
2021/07/14 01:46:06;;;;;;;20.80;18.25;;;22.40;92.20;;;;;;4879411;29;20502;-70
2021/07/14 01:48:35;;;;;;;22.83;17.48;;;22.30;92.20;;;;;;4896753;29;20036;-70
2021/07/14 01:51:01;;;;;;;21.45;18.10;;;22.30;92.30;;;;;;4896464;29;20111;-70
2021/07/14 01:53:27;;;;;;;20.45;18.20;;;22.40;92.00;;;;;;4896539;29;20025;-71
2021/07/14 01:55:54;;;;;;;24.75;19.27;;;22.40;92.20;;;;;;4879490;29;20039;-71
2021/07/14 01:58:22;;;;;;;21.75;19.25;;;22.40;92.20;;;;;;4896619;29;20040;-71
2021/07/14 02:00:52;;;;;;;21.20;17.45;;;22.40;92.50;;;;;;4879418;29;20028;-70
2021/07/14 02:03:39;;;;;;;22.50;17.55;;;22.40;92.10;;;;;;4879778;29;20064;-70
2021/07/14 02:06:04;;;;;;;28.60;20.38;;;22.50;91.90;;;;;;4895554;29;20033;-71
2021/07/14 02:08:31;;;;;;;22.20;18.48;;;22.40;92.20;;;;;;4897453;29;20048;-71
2021/07/14 02:10:59;;;;;;;24.60;19.92;;;22.50;92.00;;;;;;4900040;29;20474;-70
2021/07/14 02:13:27;;;;;;;28.45;22.27;;;22.50;92.40;;;;;;4880240;29;20091;-70
2021/07/14 02:15:55;;;;;;;22.67;18.58;;;22.30;92.80;;;;;;4884594;29;20084;-70
2021/07/14 02:18:25;;;;;;;27.90;22.98;;;22.10;93.30;;;;;;4882646;29;20067;-70
2021/07/14 02:20:51;;;;;;;29.42;24.48;;;21.80;94.60;;;;;;4900106;29;20107;-71
2021/07/14 02:23:17;;;;;;;30.88;23.95;;;21.70;95.00;;;;;;4880674;29;20509;-70
2021/07/14 02:25:42;;;;;;;30.25;24.40;;;21.20;96.80;;;;;;4904575;29;20044;-71
2021/07/14 02:28:08;;;;;;;31.08;25.15;;;21.00;97.80;;;;;;4907468;29;20371;-70
2021/07/14 02:30:34;;;;;;;32.75;25.35;;;20.90;98.30;;;;;;4899961;29;20040;-70
2021/07/14 02:33:08;;;;;;;33.30;26.33;;;20.80;98.80;;;;;;4899446;29;20079;-71
2021/07/14 02:35:40;;;;;;;32.28;26.05;;;20.80;98.90;;;;;;4899701;29;20036;-70
2021/07/14 02:38:29;;;;;;;24.10;19.20;;;20.90;98.90;;;;;;4899368;29;20021;-71
2021/07/14 02:41:22;;;;;;;22.08;18.35;;;21.30;96.40;;;;;;4899890;29;20032;-70
2021/07/14 02:43:51;;;;;;;24.35;19.35;;;21.70;95.30;;;;;;4882723;29;20032;-71
2021/07/14 02:46:26;;;;;;;24.60;19.48;;;22.10;93.80;;;;;;4899074;29;20626;-71
2021/07/14 02:48:57;;;;;;;24.50;20.15;;;22.30;93.10;;;;;;4886615;29;20043;-70
2021/07/14 02:51:25;;;;;;;24.47;20.40;;;22.40;92.90;;;;;;4899374;29;20037;-70
2021/07/14 02:53:53;;;;;;;25.77;20.50;;;22.40;92.70;;;;;;4882815;29;20292;-71
2021/07/14 02:56:22;;;;;;;27.52;21.58;;;22.40;92.80;;;;;;4881968;29;20035;-71
2021/07/14 02:58:52;;;;;;;27.25;21.77;;;22.40;92.60;;;;;;4899673;29;20025;-70
2021/07/14 03:01:19;;;;;;;29.65;24.05;;;22.40;92.40;;;;;;4898906;29;20070;-70
2021/07/14 03:03:47;;;;;;;32.03;24.23;;;22.40;93.10;;;;;;4882629;29;20091;-71
2021/07/14 03:06:13;;;;;;;33.60;26.17;;;22.10;94.10;;;;;;4882128;29;20040;-70
2021/07/14 03:08:43;;;;;;;28.48;20.75;;;21.70;95.60;;;;;;4898123;29;20554;-70
2021/07/14 03:11:10;;;;;;;27.63;22.13;;;21.90;94.70;;;;;;4882385;29;20403;-70
2021/07/14 03:13:37;;;;;;;27.60;21.63;;;22.10;93.80;;;;;;4899096;29;20064;-71
2021/07/14 03:16:03;;;;;;;27.63;21.17;;;22.20;93.50;;;;;;4881643;29;20032;-70
2021/07/14 03:18:32;;;;;;;27.13;22.42;;;22.30;93.00;;;;;;4881101;29;20033;-72
2021/07/14 03:21:00;;;;;;;28.42;22.58;;;22.40;92.80;;;;;;4863822;29;20029;-71
2021/07/14 03:23:27;;;;;;;30.70;22.40;;;22.40;92.60;;;;;;4879239;29;20029;-72
2021/07/14 03:25:55;;;;;;;30.23;22.77;;;22.30;92.90;;;;;;4888404;29;20035;-70
2021/07/14 03:28:21;;;;;;;27.15;21.50;;;22.40;92.80;;;;;;4882353;29;20541;-70
2021/07/14 03:30:48;;;;;;;32.58;25.13;;;22.30;92.90;;;;;;4881993;29;20033;-71
2021/07/14 03:33:15;;;;;;;29.77;22.52;;;22.40;92.80;;;;;;4881752;29;20077;-70
2021/07/14 03:35:41;;;;;;;28.98;22.52;;;22.40;92.60;;;;;;4881334;29;20035;-71
2021/07/14 03:38:10;;;;;;;29.70;20.73;;;22.30;93.00;;;;;;4881992;29;20036;-71
2021/07/14 03:40:39;;;;;;;25.73;20.83;;;22.40;92.00;;;;;;4882051;29;20028;-70
2021/07/14 03:43:05;;;;;;;28.83;21.90;;;22.40;91.80;;;;;;4898248;29;20088;-70
2021/07/14 03:45:32;;;;;;;34.50;23.40;;;22.50;92.10;;;;;;4898069;29;20056;-70
2021/07/14 03:48:00;;;;;;;35.38;24.00;;;22.50;92.30;;;;;;4898423;29;20032;-70
2021/07/14 03:50:26;;;;;;;32.53;24.10;;;22.50;92.50;;;;;;4898375;29;20080;-70
2021/07/14 03:52:52;;;;;;;32.17;23.63;;;22.40;92.80;;;;;;4898453;29;20124;-71
2021/07/14 03:55:18;;;;;;;31.65;23.83;;;22.40;92.60;;;;;;4881450;29;20052;-70
2021/07/14 03:57:44;;;;;;;32.33;23.80;;;22.50;92.30;;;;;;4881237;29;20028;-70
2021/07/14 04:00:11;;;;;;;32.58;23.80;;;22.50;92.20;;;;;;4898574;29;20087;-70
2021/07/14 04:02:37;;;;;;;31.38;23.23;;;22.50;92.10;;;;;;4897581;29;20056;-71
2021/07/14 04:05:04;;;;;;;34.05;25.42;;;22.40;92.40;;;;;;4880517;29;20029;-71
2021/07/14 04:07:33;;;;;;;33.80;25.38;;;22.40;92.70;;;;;;4897779;29;20033;-70
2021/07/14 04:10:00;;;;;;;39.20;26.73;;;22.40;92.50;;;;;;4881364;29;20091;-70
2021/07/14 04:12:26;;;;;;;34.63;25.05;;;22.40;92.70;;;;;;4897685;29;20024;-70
2021/07/14 04:14:52;;;;;;;35.92;26.40;;;22.40;92.60;;;;;;4898033;29;20107;-71
2021/07/14 04:17:17;;;;;;;34.00;24.95;;;22.40;92.80;;;;;;4896526;29;20072;-72
2021/07/14 04:19:43;;;;;;;37.15;27.15;;;22.40;92.70;;;;;;4880740;29;20490;-71
2021/07/14 04:22:11;;;;;;;40.80;27.27;;;22.40;92.70;;;;;;4897828;29;20041;-71
2021/07/14 04:24:36;;;;;;;35.47;26.00;;;22.30;93.00;;;;;;4882413;29;20498;-71
2021/07/14 04:27:02;;;;;;;34.75;26.25;;;22.20;93.30;;;;;;4906619;29;20048;-71
2021/07/14 04:29:28;;;;;;;38.75;27.17;;;22.30;93.00;;;;;;4888185;29;20028;-71
2021/07/14 04:31:53;;;;;;;39.03;27.77;;;22.40;92.90;;;;;;4896238;29;20434;-70
2021/07/14 04:34:19;;;;;;;37.70;26.08;;;22.30;93.20;;;;;;4897450;29;20032;-71
2021/07/14 04:36:45;;;;;;;34.38;25.05;;;22.30;92.90;;;;;;4880886;29;20057;-71
2021/07/14 04:39:10;;;;;;;36.38;25.48;;;22.30;93.30;;;;;;4881052;29;20025;-70
2021/07/14 04:41:37;;;;;;;38.78;26.75;;;22.20;93.30;;;;;;4880164;29;20032;-71
2021/07/14 04:44:05;;;;;;;34.33;25.00;;;22.20;93.40;;;;;;4894993;29;20490;-71
2021/07/14 04:46:32;;;;;;;35.90;25.73;;;22.30;93.00;;;;;;4889477;29;20032;-70
2021/07/14 04:48:58;;;;;;;37.15;26.02;;;22.20;93.50;;;;;;4879985;29;20033;-70
2021/07/14 04:51:25;;;;;;;38.72;26.23;;;22.20;93.50;;;;;;4897436;29;20024;-70
2021/07/14 04:53:51;;;;;;;39.40;26.98;;;22.20;93.50;;;;;;4880692;29;20039;-70
2021/07/14 04:56:17;;;;;;;36.33;25.38;;;22.20;93.30;;;;;;4896783;29;20036;-70
2021/07/14 04:58:44;;;;;;;39.47;26.15;;;22.20;93.30;;;;;;4876453;29;20047;-72
2021/07/14 05:01:10;;;;;;;41.47;27.23;;;22.40;93.10;;;;;;4891316;29;20083;-75
2021/07/14 05:03:36;;;;;;;38.28;26.27;;;22.30;93.20;;;;;;4861468;29;20033;-71
2021/07/14 05:06:01;;;;;;;36.28;25.70;;;22.30;93.10;;;;;;4901525;29;20439;-70
2021/07/14 05:08:27;;;;;;;34.33;24.88;;;22.20;93.20;;;;;;4897819;29;20179;-71
2021/07/14 05:10:52;;;;;;;35.58;25.20;;;22.30;93.20;;;;;;4910515;29;20035;-72
2021/07/14 05:13:18;;;;;;;35.10;25.52;;;22.40;93.10;;;;;;4901297;29;20052;-73
2021/07/14 05:15:44;;;;;;;35.65;25.40;;;22.30;93.00;;;;;;4890491;29;20037;-72
2021/07/14 05:18:13;;;;;;;34.72;24.17;;;22.30;93.20;;;;;;4889443;29;20064;-71
2021/07/14 05:20:39;;;;;;;37.35;25.73;;;22.30;92.90;;;;;;4874598;29;20032;-72
2021/07/14 05:23:05;;;;;;;35.85;24.98;;;22.10;93.00;;;;;;4873356;29;20040;-72
2021/07/14 05:25:31;;;;;;;34.97;24.90;;;22.30;93.00;;;;;;4890887;29;20044;-74
2021/07/14 05:27:56;;;;;;;34.25;23.58;;;22.20;93.30;;;;;;4884180;29;20115;-72
2021/07/14 05:30:22;;;;;;;36.10;24.40;;;22.30;93.20;;;;;;4889380;29;20063;-72
2021/07/14 05:32:47;;;;;;;32.97;24.15;;;22.20;93.40;;;;;;4875062;29;20509;-73
2021/07/14 05:35:13;;;;;;;34.75;26.08;;;22.30;93.10;;;;;;4908503;29;20548;-68
2021/07/14 05:37:38;;;;;;;32.95;24.10;;;22.40;93.00;;;;;;4891129;29;20035;-71
2021/07/14 05:40:05;;;;;;;31.48;23.55;;;22.40;92.90;;;;;;4874232;29;20108;-71
2021/07/14 05:42:31;;;;;;;32.00;23.00;;;22.40;93.10;;;;;;4889791;29;20548;-71
2021/07/14 05:44:57;;;;;;;34.17;23.15;;;22.30;93.50;;;;;;4891742;29;20037;-71
2021/07/14 05:47:22;;;;;;;32.70;22.50;;;22.20;93.80;;;;;;4881979;29;20113;-73
2021/07/14 05:49:48;;;;;;;33.58;23.10;;;22.30;93.10;;;;;;4867934;29;20043;-72
2021/07/14 05:52:14;;;;;;;30.98;23.42;;;22.40;92.80;;;;;;4891275;29;20435;-69
2021/07/14 05:54:40;;;;;;;31.80;22.48;;;22.40;92.80;;;;;;4890948;29;20021;-71
2021/07/14 05:57:06;;;;;;;28.95;22.05;;;22.40;92.90;;;;;;4889799;29;20132;-72
2021/07/14 05:59:31;;;;;;;28.95;21.35;;;22.40;92.80;;;;;;4890453;29;20112;-71
2021/07/14 06:01:57;;;;;;;31.60;21.48;;;22.50;92.60;;;;;;4889650;29;20037;-69
2021/07/14 06:04:23;;;;;;;30.63;21.48;;;22.40;92.90;;;;;;4889707;29;20024;-71
2021/07/14 06:06:48;;;;;;;30.63;21.52;;;22.40;92.90;;;;;;4891857;29;20032;-69
2021/07/14 06:09:14;;;;;;;29.30;21.05;;;22.30;93.20;;;;;;4873448;29;20036;-70
2021/07/14 06:11:41;;;;;;;29.05;21.58;;;22.30;93.30;;;;;;4890235;29;20395;-75
2021/07/14 06:14:06;;;;;;;28.52;19.88;;;22.20;93.60;;;;;;4873560;29;20037;-71
2021/07/14 06:16:32;;;;;;;27.27;20.27;;;22.30;93.20;;;;;;4889190;29;20048;-73
2021/07/14 06:18:57;;;;;;;30.25;21.45;;;22.30;93.40;;;;;;4888293;29;20037;-69
2021/07/14 06:21:23;;;;;;;29.40;20.10;;;22.20;93.50;;;;;;4890273;29;20075;-71
2021/07/14 06:23:49;;;;;;;29.63;20.35;;;22.30;93.50;;;;;;4872793;29;20060;-72
2021/07/14 06:26:15;;;;;;;28.63;19.95;;;22.20;93.40;;;;;;4889454;29;20068;-71
2021/07/14 06:28:40;;;;;;;27.50;19.67;;;22.20;93.50;;;;;;4873285;29;20067;-70
2021/07/14 06:31:06;;;;;;;28.45;19.25;;;22.20;93.70;;;;;;4891062;29;20041;-71
2021/07/14 06:33:35;;;;;;;27.70;20.08;;;22.20;93.50;;;;;;4889455;29;20033;-70
2021/07/14 06:36:02;;;;;;;31.10;21.10;;;22.10;93.90;;;;;;4872882;29;20044;-70
2021/07/14 06:38:28;;;;;;;30.83;20.98;;;22.20;94.30;;;;;;4890060;29;20024;-69
2021/07/14 06:40:53;;;;;;;28.52;19.45;;;22.10;94.20;;;;;;4890063;29;20060;-71
2021/07/14 06:43:19;;;;;;;29.50;19.45;;;22.20;93.90;;;;;;4890683;29;20502;-71
2021/07/14 06:45:47;;;;;;;28.80;19.30;;;22.20;93.50;;;;;;4883878;29;20045;-68
2021/07/14 06:48:13;;;;;;;28.27;19.75;;;22.20;93.80;;;;;;4872620;29;20033;-71
2021/07/14 06:50:38;;;;;;;29.23;19.73;;;22.20;93.70;;;;;;4890554;29;20115;-69
2021/07/14 06:53:04;;;;;;;29.45;20.02;;;22.20;93.70;;;;;;4889954;29;20033;-70
2021/07/14 06:55:31;;;;;;;32.55;21.60;;;22.20;93.70;;;;;;4899501;29;20043;-74
2021/07/14 06:57:57;;;;;;;30.40;21.02;;;22.20;93.90;;;;;;4886174;29;20154;-71
2021/07/14 07:00:23;;;;;;;30.92;20.25;;;22.10;95.00;;;;;;4893411;29;20029;-70
2021/07/14 07:02:48;;;;;;;35.20;22.38;;;22.20;94.00;;;;;;4893829;29;20043;-71
2021/07/14 07:05:15;;;;;;;31.95;22.38;;;22.30;93.80;;;;;;4876397;29;20064;-71
2021/07/14 07:07:40;;;;;;;31.92;21.10;;;22.20;94.70;;;;;;4907664;29;20115;-71
2021/07/14 07:10:07;;;;;;;34.17;21.33;;;22.30;93.70;;;;;;4884842;29;20127;-70
2021/07/14 07:12:33;;;;;;;30.40;20.10;;;22.30;93.60;;;;;;4897454;29;20033;-70
2021/07/14 07:14:59;;;;;;;32.40;21.00;;;22.20;94.10;;;;;;4887867;29;20032;-70
2021/07/14 07:17:26;;;;;;;30.63;21.02;;;22.10;94.20;;;;;;4886403;29;20025;-71
2021/07/14 07:19:51;;;;;;;30.40;19.42;;;22.20;94.40;;;;;;4900457;29;20516;-70
2021/07/14 07:22:17;;;;;;;34.25;20.40;;;22.20;94.10;;;;;;4874982;29;20036;-69
2021/07/14 07:24:42;;;;;;;31.48;21.23;;;22.30;93.80;;;;;;4884438;29;20037;-71
2021/07/14 07:27:08;;;;;;;28.27;19.10;;;22.20;94.10;;;;;;4892046;29;20028;-70
2021/07/14 07:29:35;;;;;;;30.13;20.63;;;22.20;94.10;;;;;;4900290;29;20039;-70
2021/07/14 07:32:01;;;;;;;29.58;20.48;;;22.20;94.20;;;;;;4885967;29;20036;-72
2021/07/14 07:34:27;;;;;;;30.35;20.05;;;22.30;93.80;;;;;;4882645;29;20685;-71
2021/07/14 07:36:52;;;;;;;28.98;18.80;;;22.30;93.80;;;;;;4892386;29;20025;-70
2021/07/14 07:39:19;;;;;;;30.77;20.42;;;22.20;94.00;;;;;;4877015;29;20036;-71
2021/07/14 07:41:44;;;;;;;30.63;20.23;;;22.20;94.20;;;;;;4892971;29;20025;-71
2021/07/14 07:44:10;;;;;;;30.70;22.15;;;22.20;94.10;;;;;;4889967;29;20103;-70
2021/07/14 07:46:38;;;;;;;29.65;20.85;;;22.20;94.40;;;;;;4881644;29;20039;-70
2021/07/14 07:49:04;;;;;;;28.80;20.98;;;22.20;94.30;;;;;;4886606;29;20067;-70
2021/07/14 07:51:29;;;;;;;29.23;20.48;;;22.20;94.30;;;;;;4893498;29;20069;-72
2021/07/14 07:53:56;;;;;;;29.50;21.40;;;22.20;94.30;;;;;;4875448;29;20123;-70
2021/07/14 07:56:22;;;;;;;30.02;20.95;;;22.10;94.60;;;;;;4892505;29;20021;-69
2021/07/14 07:58:47;;;;;;;30.58;21.80;;;22.10;94.40;;;;;;4876217;29;20474;-69
2021/07/14 08:01:13;;;;;;;31.17;21.85;;;22.20;94.40;;;;;;4892716;29;20024;-70
2021/07/14 08:03:40;;;;;;;29.95;21.40;;;22.10;94.70;;;;;;4892922;29;20478;-70
2021/07/14 08:06:06;;;;;;;31.50;22.63;;;22.00;94.70;;;;;;4891378;29;20024;-72
2021/07/14 08:08:31;;;;;;;30.23;22.42;;;22.20;95.40;;;;;;4900033;29;20032;-69
2021/07/14 08:10:57;;;;;;;30.50;21.00;;;22.20;94.40;;;;;;4898262;29;20486;-69
2021/07/14 08:13:23;;;;;;;32.63;22.40;;;22.10;94.50;;;;;;4875634;29;20036;-69
2021/07/14 08:15:49;;;;;;;32.60;22.85;;;22.10;94.70;;;;;;4891721;29;20494;-70
2021/07/14 08:18:15;;;;;;;30.65;22.45;;;22.20;94.60;;;;;;4889407;29;20065;-71
2021/07/14 08:20:42;;;;;;;33.10;23.38;;;22.10;94.80;;;;;;4872106;29;20033;-70
2021/07/14 08:23:08;;;;;;;32.75;22.70;;;22.10;95.00;;;;;;4884244;29;20084;-70
2021/07/14 08:25:33;;;;;;;33.78;23.05;;;22.10;94.90;;;;;;4870542;29;20024;-70
2021/07/14 08:27:59;;;;;;;32.72;23.30;;;22.10;95.00;;;;;;4891657;29;20034;-72
2021/07/14 08:30:24;;;;;;;33.22;22.70;;;22.10;95.00;;;;;;4888951;29;20078;-70
2021/07/14 08:32:51;;;;;;;38.40;23.67;;;22.10;94.70;;;;;;4890132;29;20141;-71
2021/07/14 08:35:17;;;;;;;36.95;23.67;;;22.20;94.80;;;;;;4874658;29;20065;-70
2021/07/14 08:37:43;;;;;;;32.90;21.88;;;22.10;95.00;;;;;;4890287;29;20025;-69
2021/07/14 08:40:09;;;;;;;31.25;22.63;;;22.10;94.70;;;;;;4890019;29;20025;-70
2021/07/14 08:42:41;;;;;;;32.42;22.95;;;22.10;94.80;;;;;;4875089;29;20029;-71
2021/07/14 08:45:10;;;;;;;35.28;24.08;;;22.10;95.20;;;;;;4891634;29;20040;-70
2021/07/14 08:47:38;;;;;;;32.47;22.83;;;22.10;96.50;;;;;;4874623;29;20043;-70
2021/07/14 08:50:06;;;;;;;32.42;23.13;;;22.20;94.70;;;;;;4873026;29;20088;-73
2021/07/14 08:52:32;;;;;;;33.60;22.88;;;22.20;94.80;;;;;;4855620;29;20033;-68
2021/07/14 08:54:58;;;;;;;32.85;23.52;;;22.20;95.00;;;;;;4855990;29;20037;-70
2021/07/14 08:57:25;;;;;;;32.85;22.65;;;22.20;94.90;;;;;;4856466;29;20035;-70
2021/07/14 08:59:50;;;;;;;35.65;23.83;;;22.10;95.20;;;;;;4874135;29;20513;-68
2021/07/14 09:02:16;;;;;;;33.10;23.88;;;22.20;95.00;;;;;;4874270;29;20037;-68
2021/07/14 09:04:42;;;;;;;34.55;24.77;;;22.20;94.90;;;;;;4873366;29;20048;-68
2021/07/14 09:07:09;;;;;;;33.13;23.35;;;22.30;96.20;;;;;;4873013;29;20044;-69
2021/07/14 09:09:37;;;;;;;35.28;23.42;;;22.30;94.90;;;;;;4889713;29;20387;-68
2021/07/14 09:12:08;;;;;;;34.85;24.23;;;22.30;94.70;;;;;;4869538;29;20039;-67
2021/07/14 09:14:35;;;;;;;34.40;24.90;;;22.30;94.80;;;;;;4891557;29;20028;-69
2021/07/14 09:17:22;;;;;;;34.40;23.38;;;22.30;94.90;;;;;;4892251;29;20025;-72
2021/07/14 09:19:49;;;;;;;35.13;24.30;;;22.40;94.70;;;;;;4875681;29;20043;-71
2021/07/14 09:22:23;;;;;;;37.70;26.98;;;22.40;94.50;;;;;;4887967;29;20028;-71
2021/07/14 09:24:50;;;;;;;34.30;24.48;;;22.30;95.60;;;;;;4891352;29;20402;-71
2021/07/14 09:27:27;;;;;;;37.80;27.73;;;22.30;94.90;;;;;;4872704;29;20029;-68
2021/07/14 09:30:23;;;;;;;36.83;25.15;;;22.20;96.70;;;;;;4890271;29;20024;-69
2021/07/14 09:32:49;;;;;;;37.63;25.20;;;22.30;95.30;;;;;;4862384;29;20044;-71
2021/07/14 09:35:33;;;;;;;40.13;27.60;;;22.30;94.70;;;;;;4873063;29;20158;-72
2021/07/14 09:38:08;;;;;;;36.25;25.85;;;22.20;98.10;;;;;;4884659;29;20124;-70
2021/07/14 09:40:35;;;;;;;38.40;25.55;;;22.10;96.50;;;;;;4890191;29;20028;-69
2021/07/14 09:43:04;;;;;;;33.75;24.58;;;22.20;96.60;;;;;;4887302;29;20040;-69
2021/07/14 09:45:48;;;;;;;32.35;24.50;;;22.40;95.80;;;;;;4884228;29;20559;-71
2021/07/14 09:48:17;;;;;;;33.70;24.48;;;22.30;95.40;;;;;;4881727;29;20037;-69
2021/07/14 09:50:47;;;;;;;34.92;24.73;;;22.40;95.10;;;;;;4890881;29;20624;-69
2021/07/14 09:53:16;;;;;;;34.70;25.27;;;22.40;95.00;;;;;;4890808;29;20024;-69
2021/07/14 09:55:41;;;;;;;35.15;24.73;;;22.40;94.80;;;;;;4878508;29;20024;-70
2021/07/14 09:58:16;;;;;;;34.30;24.25;;;22.40;94.90;;;;;;4863331;29;20040;-69
2021/07/14 10:00:43;;;;;;;33.13;24.38;;;22.40;95.10;;;;;;4892996;29;20108;-71
2021/07/14 10:03:09;;;;;;;34.40;25.55;;;22.40;95.40;;;;;;4878706;29;20080;-69
2021/07/14 10:05:35;;;;;;;33.92;25.35;;;22.40;95.20;;;;;;4895489;29;20035;-69
2021/07/14 10:08:14;;;;;;;35.83;25.98;;;22.40;95.10;;;;;;4879598;29;20032;-70
2021/07/14 10:10:39;;;;;;;34.30;25.58;;;22.40;95.20;;;;;;4890246;29;20083;-69
2021/07/14 10:13:09;;;;;;;36.40;26.35;;;22.40;95.20;;;;;;4894240;29;20495;-70
2021/07/14 10:15:35;;;;;;;33.90;24.83;;;22.50;95.30;;;;;;4895439;29;20033;-70
2021/07/14 10:18:02;;;;;;;34.53;24.40;;;22.40;95.40;;;;;;4895461;29;20116;-69
2021/07/14 10:20:33;;;;;;;35.55;25.48;;;22.40;95.60;;;;;;4895791;29;20055;-70
2021/07/14 10:23:07;;;;;;;32.13;23.65;;;22.40;96.90;;;;;;4878640;29;20052;-70
2021/07/14 10:25:35;;;;;;;34.85;25.02;;;22.40;95.50;;;;;;4892614;29;20045;-69
2021/07/14 10:28:02;;;;;;;31.48;23.65;;;22.40;95.80;;;;;;4875403;29;20032;-70
2021/07/14 10:30:28;;;;;;;34.15;25.25;;;22.40;95.40;;;;;;4895818;29;20487;-70
2021/07/14 10:32:56;;;;;;;31.67;24.00;;;22.40;95.80;;;;;;4899460;29;20041;-69
2021/07/14 10:35:24;;;;;;;30.88;23.15;;;22.40;95.80;;;;;;4881408;29;20033;-69
2021/07/14 10:37:56;;;;;;;32.45;23.77;;;22.40;95.40;;;;;;4898928;29;20053;-69
2021/07/14 10:40:23;;;;;;;31.85;24.77;;;22.40;95.50;;;;;;4889592;29;20109;-70
2021/07/14 10:42:50;;;;;;;32.58;24.05;;;22.40;97.00;;;;;;4898858;29;20040;-70
2021/07/14 10:45:17;;;;;;;31.85;23.73;;;22.40;95.90;;;;;;4886830;29;20080;-70
2021/07/14 10:47:45;;;;;;;32.05;24.02;;;22.40;95.70;;;;;;4899090;29;20035;-68
2021/07/14 10:50:12;;;;;;;30.55;23.27;;;22.40;95.60;;;;;;4898871;29;20052;-70
2021/07/14 10:52:39;;;;;;;31.15;25.10;;;22.50;95.40;;;;;;4880025;29;20031;-69
2021/07/14 10:55:06;;;;;;;30.92;23.52;;;22.40;95.60;;;;;;4895227;29;20514;-70
2021/07/14 10:57:32;;;;;;;30.80;23.77;;;22.40;95.80;;;;;;4879636;29;20032;-70
2021/07/14 10:59:58;;;;;;;33.03;25.73;;;22.40;95.60;;;;;;4898624;29;20228;-69
2021/07/14 11:02:47;;;;;;;31.38;24.95;;;22.30;96.10;;;;;;4885886;29;20029;-70
2021/07/14 11:05:14;;;;;;;29.75;23.30;;;22.40;96.00;;;;;;4897423;29;20023;-70
2021/07/14 11:07:45;;;;;;;29.90;22.90;;;22.40;96.20;;;;;;4881364;29;20077;-71
2021/07/14 11:10:30;;;;;;;27.75;22.05;;;22.40;96.30;;;;;;4881999;29;20063;-70
2021/07/14 11:13:19;;;;;;;29.65;23.25;;;22.50;96.50;;;;;;4898852;29;20036;-70
2021/07/14 11:15:46;;;;;;;28.20;22.50;;;22.40;96.50;;;;;;4871777;29;20193;-69
2021/07/14 11:18:30;;;;;;;27.92;21.42;;;22.40;96.60;;;;;;4897997;29;20479;-69
2021/07/14 11:20:57;;;;;;;25.88;20.45;;;22.50;97.30;;;;;;4895065;29;20025;-70
2021/07/14 11:23:25;;;;;;;27.58;21.25;;;22.50;96.50;;;;;;4895508;29;20032;-69
2021/07/14 11:25:57;;;;;;;25.52;20.17;;;22.40;96.50;;;;;;4898236;29;20376;-69
2021/07/14 11:28:24;;;;;;;27.45;20.10;;;22.50;96.30;;;;;;4898635;29;20439;-69
2021/07/14 11:30:57;;;;;;;25.98;20.35;;;22.40;96.40;;;;;;4881639;29;20060;-69
2021/07/14 11:33:27;;;;;;;27.15;21.13;;;22.40;96.60;;;;;;4870768;29;20040;-69
2021/07/14 11:35:55;;;;;;;26.23;19.73;;;22.40;96.60;;;;;;4881472;29;20040;-70
2021/07/14 11:38:25;;;;;;;24.35;19.38;;;22.40;96.00;;;;;;4899057;29;20025;-70
2021/07/14 11:40:53;;;;;;;24.88;19.60;;;22.30;96.70;;;;;;4878437;29;20434;-71
2021/07/14 11:43:23;;;;;;;22.50;18.05;;;22.20;96.50;;;;;;4891079;29;20033;-73
2021/07/14 11:46:22;;;;;;;21.70;17.63;;;22.10;96.80;;;;;;4898036;29;20035;-74
2021/07/14 11:48:51;;;;;;;22.77;17.98;;;21.80;98.20;;;;;;4899015;29;20512;-72
2021/07/14 11:51:16;;;;;;;22.85;18.23;;;21.70;99.00;;;;;;4881946;29;20040;-72
2021/07/14 11:53:46;;;;;;;20.65;17.70;;;21.60;99.80;;;;;;4898586;29;20506;-72
2021/07/14 11:56:35;;;;;;;22.77;18.75;;;21.50;99.90;;;;;;4881539;29;20021;-72
2021/07/14 11:59:05;;;;;;;22.02;18.38;;;21.50;99.90;;;;;;4898731;29;20043;-73
2021/07/14 12:01:31;;;;;;;19.65;16.35;;;21.60;99.90;;;;;;4898032;29;20088;-71
2021/07/14 12:04:02;;;;;;;21.52;17.40;;;21.90;97.00;;;;;;4898243;29;20072;-72
2021/07/14 12:06:41;;;;;;;21.92;15.98;;;22.00;96.50;;;;;;4897669;29;20161;-71
2021/07/14 12:09:13;;;;;;;21.05;16.20;;;21.70;97.30;;;;;;4897505;29;20036;-73
2021/07/14 12:11:49;;;;;;;18.92;14.98;;;21.70;98.80;;;;;;4881652;29;20119;-72
2021/07/14 12:14:17;;;;;;;18.55;15.10;;;21.50;99.50;;;;;;4898018;29;20028;-70
2021/07/14 12:16:52;;;;;;;18.33;14.57;;;21.60;99.50;;;;;;4898358;29;20128;-72
2021/07/14 12:19:23;;;;;;;19.00;15.35;;;21.70;99.90;;;;;;4881233;29;20066;-73
2021/07/14 12:21:50;;;;;;;17.15;14.95;;;21.80;99.70;;;;;;4881491;29;20053;-72
2021/07/14 12:24:31;;;;;;;16.55;13.13;;;21.90;99.50;;;;;;4880770;29;20524;-71
2021/07/14 12:27:06;;;;;;;18.98;15.57;;;22.10;96.70;;;;;;4894928;29;20059;-71
2021/07/14 12:29:32;;;;;;;19.33;15.10;;;22.20;96.40;;;;;;4897000;29;20648;-72
2021/07/14 12:32:00;;;;;;;19.08;15.52;;;22.10;96.10;;;;;;4914399;29;20126;-71
2021/07/14 12:34:27;;;;;;;18.65;14.95;;;22.20;96.00;;;;;;4898575;29;20128;-71
2021/07/14 12:36:56;;;;;;;19.50;15.77;;;22.20;96.10;;;;;;4898735;29;20056;-71
2021/07/14 12:39:27;;;;;;;21.42;16.88;;;22.30;95.80;;;;;;4914103;29;20080;-73